createdAt,value
2019-04-11T00:00:48.594Z,5.43
2019-04-11T00:03:17.692Z,6.07
2019-04-11T00:05:47.363Z,7.43
2019-04-11T00:08:17.582Z,6.07
2019-04-11T00:10:47.057Z,5.03
2019-04-11T00:13:22.648Z,4.33
2019-04-11T00:15:47.467Z,5.10
2019-04-11T00:18:16.693Z,5.13
2019-04-11T00:20:46.447Z,6.23
2019-04-11T00:23:16.290Z,5.10
2019-04-11T00:25:45.468Z,5.10
2019-04-11T00:28:15.326Z,5.60
2019-04-11T00:30:44.733Z,5.43
2019-04-11T00:33:13.985Z,5.70
2019-04-11T00:35:43.960Z,6.17
2019-04-11T00:38:13.858Z,6.07
2019-04-11T00:40:43.721Z,5.17
2019-04-11T00:43:12.899Z,6.77
2019-04-11T00:45:42.148Z,5.20
2019-04-11T00:48:11.380Z,4.80
2019-04-11T00:50:40.795Z,5.50
2019-04-11T00:53:10.047Z,4.77
2019-04-11T00:55:40.209Z,4.87
2019-04-11T00:58:09.638Z,5.30
2019-04-11T01:00:39.728Z,5.37
2019-04-11T01:03:09.740Z,6.80
2019-04-11T01:05:39.423Z,5.53
2019-04-11T01:08:08.925Z,4.87
2019-04-11T01:10:39.262Z,6.13
2019-04-11T01:13:09.223Z,6.40
2019-04-11T01:15:40.866Z,5.70
2019-04-11T01:18:09.961Z,5.33
2019-04-11T01:20:39.788Z,6.13
2019-04-11T01:23:09.216Z,6.80
2019-04-11T01:25:38.942Z,6.23
2019-04-11T01:28:08.138Z,6.10
2019-04-11T01:30:45.150Z,5.10
2019-04-11T01:33:14.223Z,6.53
2019-04-11T01:35:43.699Z,6.37
2019-04-11T01:38:13.959Z,5.80
2019-04-11T01:40:43.870Z,6.70
2019-04-11T01:43:13.561Z,5.37
2019-04-11T01:45:43.479Z,6.67
2019-04-11T01:48:31.635Z,5.10
2019-04-11T01:51:01.423Z,5.93
2019-04-11T01:53:31.019Z,7.43
2019-04-11T01:56:01.024Z,4.20
2019-04-11T01:58:30.943Z,5.40
2019-04-11T02:01:12.607Z,4.83
2019-04-11T02:03:59.663Z,7.07
2019-04-11T02:06:29.853Z,4.67
2019-04-11T02:08:59.822Z,6.23
2019-04-11T02:11:29.702Z,6.27
2019-04-11T02:14:08.964Z,5.23
2019-04-11T02:16:30.463Z,5.77
2019-04-11T02:18:59.618Z,6.10
2019-04-11T02:21:29.559Z,6.63
2019-04-11T02:24:13.939Z,6.57
2019-04-11T02:26:46.804Z,6.33
2019-04-11T02:29:17.270Z,4.50
2019-04-11T02:31:47.160Z,7.03
2019-04-11T02:34:16.392Z,7.77
2019-04-11T02:36:49.069Z,5.83
2019-04-11T02:39:20.263Z,6.10
2019-04-11T02:41:50.807Z,9.70
2019-04-11T02:44:41.094Z,6.97
2019-04-11T02:47:00.448Z,7.50
2019-04-11T02:49:23.452Z,5.40
2019-04-11T02:51:53.650Z,5.77
2019-04-11T02:54:26.306Z,5.57
2019-04-11T02:56:55.111Z,7.80
2019-04-11T02:59:25.330Z,5.07
2019-04-11T03:01:55.841Z,5.80
2019-04-11T03:04:26.785Z,6.50
2019-04-11T03:06:57.352Z,6.87
2019-04-11T03:09:26.997Z,7.10
2019-04-11T03:11:56.828Z,6.30
2019-04-11T03:14:29.275Z,6.17
2019-04-11T03:17:08.422Z,6.73
2019-04-11T03:19:42.657Z,5.00
2019-04-11T03:22:01.501Z,7.03
2019-04-11T03:24:33.323Z,7.40
2019-04-11T03:27:04.858Z,6.83
2019-04-11T03:29:35.419Z,6.87
2019-04-11T03:32:48.743Z,8.43
2019-04-11T03:35:20.366Z,5.97
2019-04-11T03:37:25.966Z,8.13
2019-04-11T03:39:59.543Z,5.43
2019-04-11T03:42:22.155Z,7.60
2019-04-11T03:44:47.135Z,6.83
2019-04-11T03:47:27.731Z,6.80
2019-04-11T03:49:51.043Z,5.37
2019-04-11T03:52:14.976Z,7.10
2019-04-11T03:54:45.519Z,7.17
2019-04-11T03:57:17.361Z,6.47
2019-04-11T03:59:47.855Z,6.00
2019-04-11T04:02:17.491Z,7.33
2019-04-11T04:04:46.814Z,8.30
2019-04-11T04:07:16.744Z,6.20
2019-04-11T04:09:48.892Z,8.00
2019-04-11T04:12:18.650Z,6.97
2019-04-11T04:14:58.945Z,7.27
2019-04-11T04:17:55.261Z,9.63
2019-04-11T04:20:45.962Z,6.93
2019-04-11T04:23:24.890Z,6.30
2019-04-11T04:25:54.597Z,6.17
2019-04-11T04:28:24.560Z,7.77
2019-04-11T04:30:54.032Z,5.43
2019-04-11T04:33:29.284Z,6.10
2019-04-11T04:36:00.250Z,6.70
2019-04-11T04:38:31.603Z,9.27
2019-04-11T04:41:16.874Z,7.20
2019-04-11T04:43:34.578Z,7.77
2019-04-11T04:46:23.738Z,7.00
2019-04-11T04:48:35.518Z,5.60
2019-04-11T04:51:08.913Z,6.60
2019-04-11T04:53:35.758Z,6.03
2019-04-11T04:56:06.748Z,7.80
2019-04-11T04:58:35.901Z,7.87
2019-04-11T05:01:06.896Z,8.03
2019-04-11T05:03:35.977Z,8.17
2019-04-11T05:06:05.357Z,11.20
2019-04-11T05:08:34.803Z,7.70
2019-04-11T05:11:04.707Z,8.77
2019-04-11T05:13:34.468Z,7.43
2019-04-11T05:16:14.274Z,8.10
2019-04-11T05:18:36.196Z,7.40
2019-04-11T05:21:05.596Z,8.53
2019-04-11T05:23:34.682Z,7.53
2019-04-11T05:26:04.530Z,7.70
2019-04-11T05:28:33.702Z,6.50
2019-04-11T05:31:02.770Z,7.97
2019-04-11T05:33:32.264Z,9.20
2019-04-11T05:36:01.387Z,7.53
2019-04-11T05:38:30.512Z,8.60
2019-04-11T05:40:59.706Z,7.40
2019-04-11T05:43:31.893Z,8.33
2019-04-11T05:46:00.274Z,8.00
2019-04-11T05:48:41.144Z,9.53
2019-04-11T05:51:10.936Z,9.60
2019-04-11T05:53:40.309Z,10.37
2019-04-11T05:56:09.753Z,8.77
2019-04-11T05:58:42.174Z,10.07
2019-04-11T06:01:20.325Z,9.13
2019-04-11T06:03:50.846Z,9.10
2019-04-11T06:06:40.345Z,9.47
2019-04-11T06:09:16.231Z,8.23
2019-04-11T06:11:54.240Z,9.27
2019-04-11T06:14:33.863Z,13.10
2019-04-11T06:17:07.286Z,10.33
2019-04-11T06:19:55.608Z,10.30
2019-04-11T06:22:25.571Z,8.63
2019-04-11T06:25:16.682Z,10.77
2019-04-11T06:27:51.733Z,9.37
2019-04-11T06:30:38.151Z,10.30
2019-04-11T06:33:13.987Z,7.60
2019-04-11T06:36:00.773Z,9.03
2019-04-11T06:38:52.744Z,10.07
2019-04-11T06:41:28.730Z,9.43
2019-04-11T06:44:04.775Z,10.63
2019-04-11T06:46:54.856Z,9.43
2019-04-11T06:49:30.821Z,12.87
2019-04-11T06:52:02.278Z,13.27
2019-04-11T06:54:53.895Z,9.97
2019-04-11T06:57:25.734Z,11.93
2019-04-11T06:59:56.467Z,11.40
2019-04-11T07:02:27.960Z,12.00
2019-04-11T07:05:00.574Z,12.07
2019-04-11T07:07:32.794Z,8.97
2019-04-11T07:10:04.520Z,11.93
2019-04-11T07:12:38.492Z,10.63
2019-04-11T07:15:14.482Z,9.67
2019-04-11T07:18:03.082Z,12.20
2019-04-11T07:21:06.791Z,10.33
2019-04-11T07:23:53.969Z,10.57
2019-04-11T07:26:27.250Z,13.90
2019-04-11T07:29:22.002Z,10.20
2019-04-11T07:32:11.880Z,9.80
2019-04-11T07:35:00.031Z,14.00
2019-04-11T07:37:36.845Z,11.10
2019-04-11T07:40:29.242Z,8.93
2019-04-11T07:43:13.469Z,10.67
2019-04-11T07:46:03.256Z,10.97
2019-04-11T07:48:40.624Z,13.57
2019-04-11T07:51:28.781Z,12.93
2019-04-11T07:54:00.301Z,13.30
2019-04-11T07:56:52.704Z,11.90
2019-04-11T07:59:46.756Z,11.43
2019-04-11T08:02:50.273Z,12.30
2019-04-11T08:05:38.928Z,13.47
2019-04-11T08:08:21.413Z,9.20
2019-04-11T08:11:06.680Z,10.73
2019-04-11T08:13:57.885Z,11.20
2019-04-11T08:16:45.307Z,12.60
2019-04-11T08:19:28.825Z,13.30
2019-04-11T08:22:11.505Z,9.93
2019-04-11T08:24:49.030Z,13.03
2019-04-11T08:27:55.902Z,9.90
2019-04-11T08:30:17.551Z,10.83
2019-04-11T08:32:53.875Z,9.23
2019-04-11T08:35:45.199Z,9.27
2019-04-11T08:38:18.513Z,9.10
2019-04-11T08:40:53.325Z,9.53
2019-04-11T08:43:28.901Z,9.33
2019-04-11T08:46:20.648Z,9.40
2019-04-11T08:48:53.080Z,8.30
2019-04-11T08:51:25.704Z,9.83
2019-04-11T08:54:29.340Z,10.37
2019-04-11T08:56:59.116Z,8.60
2019-04-11T08:59:47.507Z,8.10
2019-04-11T09:02:24.767Z,9.07
2019-04-11T09:05:18.301Z,8.63
2019-04-11T09:07:58.320Z,9.33
2019-04-11T09:10:46.363Z,8.63
2019-04-11T09:13:52.680Z,8.20
2019-04-11T09:16:39.870Z,6.40
2019-04-11T09:19:16.770Z,8.80
2019-04-11T09:22:04.724Z,10.20
2019-04-11T09:24:51.826Z,9.40
2019-04-11T09:27:38.926Z,7.60
2019-04-11T09:30:15.855Z,8.20
2019-04-11T09:33:02.951Z,8.23
2019-04-11T09:35:33.353Z,8.33
2019-04-11T09:38:02.491Z,7.10
2019-04-11T09:40:40.244Z,10.50
2019-04-11T09:43:17.897Z,9.93
2019-04-11T09:46:06.126Z,7.43
2019-04-11T09:48:53.845Z,9.60
2019-04-11T09:51:42.161Z,9.10
2019-04-11T09:54:36.628Z,9.53
2019-04-11T09:57:32.476Z,9.83
2019-04-11T10:00:26.981Z,7.37
2019-04-11T10:03:15.706Z,8.10
2019-04-11T10:06:09.942Z,7.23
2019-04-11T10:08:59.636Z,9.37
2019-04-11T10:11:46.855Z,7.77
2019-04-11T10:14:17.950Z,6.20
2019-04-11T10:17:05.028Z,6.00
2019-04-11T10:19:36.197Z,6.90
2019-04-11T10:22:36.899Z,7.20
2019-04-11T10:25:12.846Z,7.07
2019-04-11T10:28:13.271Z,7.07
2019-04-11T10:31:00.449Z,7.90
2019-04-11T10:33:37.237Z,7.83
2019-04-11T10:36:18.873Z,9.07
2019-04-11T10:38:49.351Z,7.17
2019-04-11T10:41:30.563Z,9.00
2019-04-11T10:44:01.309Z,7.30
2019-04-11T10:46:43.952Z,7.10
2019-04-11T10:49:28.919Z,8.17
2019-04-11T10:52:02.315Z,7.10
2019-04-11T10:54:33.069Z,7.67
2019-04-11T10:57:24.410Z,8.30
2019-04-11T10:59:54.510Z,6.73
2019-04-11T11:02:45.248Z,6.73
2019-04-11T11:05:17.617Z,7.27
2019-04-11T11:07:46.797Z,7.03
2019-04-11T11:10:19.556Z,8.97
2019-04-11T11:13:07.820Z,6.97
2019-04-11T11:15:56.177Z,8.47
2019-04-11T11:19:14.969Z,7.70
2019-04-11T11:21:17.919Z,10.13
2019-04-11T11:24:07.203Z,7.10
2019-04-11T11:26:37.245Z,7.37
2019-04-11T11:29:28.935Z,6.63
2019-04-11T11:32:01.094Z,8.40
2019-04-11T11:34:37.167Z,12.70
2019-04-11T11:37:24.937Z,7.33
2019-04-11T11:40:25.902Z,8.80
2019-04-11T11:43:11.983Z,7.50
2019-04-11T11:45:53.637Z,8.63
2019-04-11T11:48:39.693Z,10.03
2019-04-11T11:51:13.484Z,11.73
2019-04-11T11:54:07.651Z,9.03
2019-04-11T11:56:40.326Z,8.10
2019-04-11T11:59:13.311Z,7.53
2019-04-11T12:01:50.777Z,7.13
2019-04-11T12:04:38.972Z,7.63
2019-04-11T12:07:09.415Z,7.63
2019-04-11T12:09:56.457Z,9.30
2019-04-11T12:12:31.589Z,7.30
2019-04-11T12:15:24.285Z,7.23
2019-04-11T12:18:11.111Z,8.47
2019-04-11T12:20:46.060Z,7.10
2019-04-11T12:23:26.412Z,7.43
2019-04-11T12:25:55.725Z,7.00
2019-04-11T12:28:38.632Z,9.33
2019-04-11T12:31:09.451Z,6.63
2019-04-11T12:33:57.809Z,7.80
2019-04-11T12:36:30.680Z,8.47
2019-04-11T12:39:24.562Z,8.97
2019-04-11T12:42:01.656Z,8.47
2019-04-11T12:44:49.917Z,8.20
2019-04-11T12:47:24.520Z,6.93
2019-04-11T12:50:21.762Z,8.43
2019-04-11T12:53:10.037Z,7.97
2019-04-11T12:56:04.397Z,8.63
2019-04-11T12:59:10.926Z,8.50
2019-04-11T13:01:57.886Z,9.20
2019-04-11T13:04:31.284Z,8.70
2019-04-11T13:07:09.393Z,8.50
2019-04-11T13:09:51.188Z,7.13
2019-04-11T13:12:42.399Z,6.33
2019-04-11T13:15:46.265Z,8.60
2019-04-11T13:18:34.762Z,7.67
2019-04-11T13:21:07.259Z,8.57
2019-04-11T13:24:10.835Z,8.80
2019-04-11T13:27:14.289Z,7.80
2019-04-11T13:30:02.550Z,9.30
2019-04-11T13:32:40.106Z,7.43
2019-04-11T13:35:34.686Z,7.70
2019-04-11T13:38:08.899Z,8.30
2019-04-11T13:41:03.178Z,8.43
2019-04-11T13:43:50.784Z,8.50
2019-04-11T13:46:49.151Z,9.50
2019-04-11T13:49:46.433Z,7.53
2019-04-11T13:52:34.793Z,8.40
2019-04-11T13:55:28.173Z,6.13
2019-04-11T13:58:16.128Z,7.20
2019-04-11T14:01:02.477Z,7.47
2019-04-11T14:04:00.045Z,7.00
2019-04-11T14:06:36.143Z,8.20
2019-04-11T14:09:33.662Z,8.47
2019-04-11T14:12:05.630Z,9.97
2019-04-11T14:14:37.123Z,7.83
2019-04-11T14:17:34.525Z,7.90
2019-04-11T14:20:29.517Z,7.17
2019-04-11T14:23:15.217Z,10.37
2019-04-11T14:26:17.329Z,7.20
2019-04-11T14:29:08.423Z,6.83
2019-04-11T14:32:05.823Z,7.83
2019-04-11T14:34:47.559Z,7.33
2019-04-11T14:37:25.721Z,8.67
2019-04-11T14:40:10.604Z,9.33
2019-04-11T14:42:54.272Z,7.50
2019-04-11T14:45:41.907Z,9.60
2019-04-11T14:48:30.284Z,6.93
2019-04-11T14:51:10.198Z,5.70
2019-04-11T14:54:11.990Z,7.60
2019-04-11T14:56:47.787Z,8.73
2019-04-11T14:59:29.757Z,8.80
2019-04-11T15:02:06.320Z,6.80
2019-04-11T15:04:53.497Z,8.03
2019-04-11T15:07:22.571Z,7.40
2019-04-11T15:09:59.265Z,6.70
2019-04-11T15:12:30.524Z,9.57
2019-04-11T15:15:24.711Z,8.43
2019-04-11T15:17:56.595Z,10.07
2019-04-11T15:20:55.628Z,7.30
2019-04-11T15:23:37.535Z,8.43
2019-04-11T15:26:23.846Z,8.47
2019-04-11T15:29:06.452Z,8.77
2019-04-11T15:31:40.774Z,6.97
2019-04-11T15:34:25.152Z,8.20
2019-04-11T15:37:06.064Z,7.17
2019-04-11T15:40:09.650Z,14.43
2019-04-11T15:43:07.268Z,9.23
2019-04-11T15:45:48.187Z,8.03
2019-04-11T15:48:35.219Z,8.90
2019-04-11T15:51:35.664Z,8.93
2019-04-11T15:54:27.256Z,8.40
2019-04-11T15:57:21.582Z,9.67
2019-04-11T16:00:08.389Z,10.17
2019-04-11T16:03:08.436Z,7.20
2019-04-11T16:05:55.763Z,6.30
2019-04-11T16:08:38.858Z,7.27
2019-04-11T16:11:14.213Z,6.63
2019-04-11T16:14:08.435Z,8.43
2019-04-11T16:16:56.854Z,9.40
2019-04-11T16:19:39.640Z,11.13
2019-04-11T16:22:33.761Z,8.60
2019-04-11T16:25:05.861Z,7.73
2019-04-11T16:28:09.631Z,7.33
2019-04-11T16:30:41.196Z,8.47
2019-04-11T16:33:29.490Z,6.43
2019-04-11T16:36:20.572Z,7.93
2019-04-11T16:39:11.680Z,7.63
2019-04-11T16:42:14.976Z,9.17
2019-04-11T16:45:01.578Z,8.93
2019-04-11T16:47:45.348Z,7.57
2019-04-11T16:50:14.717Z,7.70
2019-04-11T16:52:43.817Z,7.13
2019-04-11T16:55:12.905Z,6.33
2019-04-11T16:57:44.868Z,8.47
2019-04-11T17:00:14.723Z,7.90
2019-04-11T17:02:44.220Z,8.77
2019-04-11T17:05:13.507Z,8.17
2019-04-11T17:08:04.674Z,6.47
2019-04-11T17:10:51.498Z,7.77
2019-04-11T17:13:20.778Z,6.70
2019-04-11T17:15:49.965Z,7.20
2019-04-11T17:18:19.240Z,7.23
2019-04-11T17:20:48.418Z,6.77
2019-04-11T17:23:17.843Z,7.93
2019-04-11T17:25:52.373Z,6.87
2019-04-11T17:28:18.008Z,8.37
2019-04-11T17:30:47.112Z,7.37
2019-04-11T17:33:16.245Z,6.77
2019-04-11T17:35:45.334Z,7.63
2019-04-11T17:38:14.326Z,8.97
2019-04-11T17:40:43.643Z,7.80
2019-04-11T17:43:13.912Z,8.53
2019-04-11T17:45:43.493Z,8.67
2019-04-11T17:48:12.752Z,7.60
2019-04-11T17:50:41.944Z,8.33
2019-04-11T17:53:11.057Z,9.33
2019-04-11T17:55:40.344Z,9.53
2019-04-11T17:58:09.423Z,8.73
2019-04-11T18:00:40.297Z,7.37
2019-04-11T18:03:11.812Z,10.37
2019-04-11T18:05:40.280Z,8.23
2019-04-11T18:08:09.425Z,8.27
2019-04-11T18:10:38.499Z,10.63
2019-04-11T18:13:07.560Z,8.77
2019-04-11T18:15:36.632Z,7.60
2019-04-11T18:18:06.076Z,9.50
2019-04-11T18:20:37.116Z,7.17
2019-04-11T18:23:06.877Z,10.00
2019-04-11T18:25:35.872Z,9.80
2019-04-11T18:28:04.958Z,9.77
2019-04-11T18:30:34.261Z,10.23
2019-04-11T18:33:03.389Z,8.87
2019-04-11T18:35:32.519Z,11.93
2019-04-11T18:38:02.552Z,8.73
2019-04-11T18:40:31.744Z,9.80
2019-04-11T18:43:01.066Z,9.30
2019-04-11T18:45:30.259Z,10.27
2019-04-11T18:47:59.251Z,10.80
2019-04-11T18:50:28.939Z,8.60
2019-04-11T18:52:59.544Z,8.23
2019-04-11T18:55:29.002Z,9.30
2019-04-11T18:57:58.137Z,8.33
2019-04-11T19:00:27.700Z,8.63
2019-04-11T19:02:56.762Z,10.47
2019-04-11T19:05:28.815Z,8.70
2019-04-11T19:07:56.818Z,9.23
2019-04-11T19:10:25.888Z,6.93
2019-04-11T19:12:54.956Z,8.30
2019-04-11T19:15:24.103Z,8.97
2019-04-11T19:18:05.669Z,7.80
2019-04-11T19:20:23.932Z,9.40
2019-04-11T19:22:53.157Z,9.27
2019-04-11T19:25:22.229Z,8.40
2019-04-11T19:27:54.280Z,7.87
2019-04-11T19:30:23.988Z,9.20
2019-04-11T19:32:53.924Z,8.27
2019-04-11T19:35:22.980Z,8.50
2019-04-11T19:37:53.330Z,8.53
2019-04-11T19:40:22.400Z,8.27
2019-04-11T19:42:51.488Z,8.73
2019-04-11T19:45:20.733Z,8.53
2019-04-11T19:47:52.251Z,7.67
2019-04-11T19:50:22.485Z,8.47
2019-04-11T19:52:51.610Z,9.90
2019-04-11T19:55:34.562Z,11.80
2019-04-11T19:58:02.874Z,9.83
2019-04-11T20:00:32.096Z,7.90
2019-04-11T20:03:01.291Z,9.37
2019-04-11T20:05:30.407Z,12.50
2019-04-11T20:07:59.639Z,9.40
2019-04-11T20:10:30.767Z,8.33
2019-04-11T20:13:01.898Z,10.33
2019-04-11T20:15:37.026Z,10.37
2019-04-11T20:18:02.140Z,10.37
2019-04-11T20:20:31.223Z,9.20
2019-04-11T20:23:10.530Z,9.43
2019-04-11T20:25:36.965Z,9.53
2019-04-11T20:28:06.127Z,10.00
2019-04-11T20:30:35.289Z,10.67
2019-04-11T20:33:04.285Z,10.17
2019-04-11T20:35:33.525Z,9.37
2019-04-11T20:38:02.675Z,9.20
2019-04-11T20:40:31.863Z,8.67
2019-04-11T20:43:01.013Z,9.37
2019-04-11T20:45:31.969Z,9.37
2019-04-11T20:48:01.050Z,8.07
2019-04-11T20:50:30.466Z,9.37
2019-04-11T20:53:11.986Z,8.67
2019-04-11T20:55:30.894Z,10.67
2019-04-11T20:57:59.847Z,9.43
2019-04-11T21:00:28.981Z,9.17
2019-04-11T21:02:59.048Z,8.07
2019-04-11T21:05:30.562Z,7.73
2019-04-11T21:08:02.565Z,9.03
2019-04-11T21:10:31.903Z,7.17
2019-04-11T21:13:01.006Z,9.47
2019-04-11T21:15:30.092Z,10.50
2019-04-11T21:17:59.183Z,7.63
2019-04-11T21:20:28.428Z,8.47
2019-04-11T21:22:57.511Z,9.70
2019-04-11T21:25:28.447Z,7.17
2019-04-11T21:27:59.156Z,8.87
2019-04-11T21:30:30.319Z,9.67
2019-04-11T21:33:01.083Z,10.03
2019-04-11T21:35:30.967Z,8.67
2019-04-11T21:38:00.980Z,9.70
2019-04-11T21:40:30.070Z,10.07
2019-04-11T21:42:59.127Z,9.13
2019-04-11T21:45:28.364Z,8.17
2019-04-11T21:47:57.448Z,8.07
2019-04-11T21:50:26.512Z,9.07
2019-04-11T21:52:55.651Z,8.33
2019-04-11T21:55:24.698Z,9.43
2019-04-11T21:57:53.862Z,9.70
2019-04-11T22:00:29.864Z,6.97
2019-04-11T22:02:59.108Z,8.67
2019-04-11T22:05:29.229Z,8.23
2019-04-11T22:08:00.899Z,8.50
2019-04-11T22:10:30.077Z,9.33
2019-04-11T22:12:59.159Z,7.23
2019-04-11T22:15:28.389Z,8.40
2019-04-11T22:17:57.385Z,7.40
2019-04-11T22:20:26.452Z,8.40
2019-04-11T22:22:55.756Z,8.50
2019-04-11T22:25:24.755Z,9.43
2019-04-11T22:27:54.507Z,8.07
2019-04-11T22:30:25.336Z,8.30
2019-04-11T22:32:59.137Z,8.97
2019-04-11T22:35:29.103Z,8.00
2019-04-11T22:37:59.808Z,7.13
2019-04-11T22:40:31.645Z,9.80
2019-04-11T22:43:00.472Z,9.87
2019-04-11T22:45:29.658Z,7.27
2019-04-11T22:47:58.912Z,8.83
2019-04-11T22:50:27.979Z,8.80
2019-04-11T22:52:57.038Z,9.43
2019-04-11T22:55:26.165Z,8.97
2019-04-11T22:57:55.171Z,6.87
2019-04-11T23:00:24.163Z,8.07
2019-04-11T23:03:10.514Z,7.93
2019-04-11T23:05:39.584Z,8.50
2019-04-11T23:08:08.671Z,7.93
2019-04-11T23:10:37.969Z,7.83
2019-04-11T23:13:07.009Z,10.53
2019-04-11T23:15:36.083Z,8.43
2019-04-11T23:18:05.137Z,9.73
2019-04-11T23:20:34.199Z,8.47
2019-04-11T23:23:03.247Z,6.93
2019-04-11T23:25:32.496Z,7.70
2019-04-11T23:28:01.546Z,8.20
2019-04-11T23:30:30.627Z,7.67
2019-04-11T23:32:59.769Z,7.97
2019-04-11T23:35:28.837Z,8.90
2019-04-11T23:37:57.882Z,8.37
2019-04-11T23:40:27.163Z,8.60
2019-04-11T23:42:56.206Z,8.03
2019-04-11T23:45:27.435Z,8.30
2019-04-11T23:47:56.607Z,8.37
2019-04-11T23:50:25.964Z,6.97
2019-04-11T23:52:57.939Z,7.57
2019-04-11T23:55:30.043Z,7.13
2019-04-11T23:57:56.828Z,9.20
